createdAt,value
2019-01-11T00:00:26.788Z,-4.20
2019-01-11T00:02:58.957Z,-4.21
2019-01-11T00:05:30.793Z,-4.17
2019-01-11T00:08:02.683Z,-3.97
2019-01-11T00:10:35.417Z,-4.05
2019-01-11T00:13:07.379Z,-4.09
2019-01-11T00:15:46.486Z,-4.13
2019-01-11T00:18:18.310Z,-4.14
2019-01-11T00:20:50.065Z,-4.26
2019-01-11T00:23:21.897Z,-4.49
2019-01-11T00:25:53.714Z,-4.77
2019-01-11T00:28:25.534Z,-4.72
2019-01-11T00:30:57.402Z,-4.88
2019-01-11T00:33:29.249Z,-4.76
2019-01-11T00:36:01.080Z,-5.01
2019-01-11T00:38:32.907Z,-4.93
2019-01-11T00:41:04.714Z,-4.92
2019-01-11T00:43:36.472Z,-4.92
2019-01-11T00:46:09.392Z,-5.03
2019-01-11T00:48:41.242Z,-5.17
2019-01-11T00:51:13.423Z,-5.12
2019-01-11T00:53:45.188Z,-5.12
2019-01-11T00:56:16.936Z,-5.13
2019-01-11T00:58:48.765Z,-5.16
2019-01-11T01:01:20.578Z,-5.05
2019-01-11T01:03:52.461Z,-4.93
2019-01-11T01:06:24.365Z,-4.91
2019-01-11T01:08:56.244Z,-4.85
2019-01-11T01:11:28.099Z,-4.85
2019-01-11T01:14:00.010Z,-4.83
2019-01-11T01:16:31.767Z,-4.84
2019-01-11T01:19:03.536Z,-5.03
2019-01-11T01:21:35.475Z,-5.15
2019-01-11T01:24:07.472Z,-4.96
2019-01-11T01:26:39.389Z,-4.90
2019-01-11T01:29:11.229Z,-5.11
2019-01-11T01:31:43.557Z,-4.96
2019-01-11T01:34:15.409Z,-5.00
2019-01-11T01:36:47.239Z,-5.14
2019-01-11T01:39:19.330Z,-5.25
2019-01-11T01:41:51.065Z,-5.15
2019-01-11T01:44:22.806Z,-5.19
2019-01-11T01:46:54.548Z,-5.26
2019-01-11T01:49:26.769Z,-5.17
2019-01-11T01:51:58.569Z,-5.03
2019-01-11T01:54:30.489Z,-5.11
2019-01-11T01:57:02.277Z,-4.99
2019-01-11T01:59:34.164Z,-4.98
2019-01-11T02:02:06.523Z,-4.98
2019-01-11T02:04:38.331Z,-4.93
2019-01-11T02:07:10.178Z,-4.98
2019-01-11T02:09:43.058Z,-4.90
2019-01-11T02:12:15.253Z,-4.93
2019-01-11T02:14:47.015Z,-5.02
2019-01-11T02:17:19.416Z,-4.87
2019-01-11T02:19:51.200Z,-4.76
2019-01-11T02:22:23.348Z,-4.62
2019-01-11T02:24:55.206Z,-4.64
2019-01-11T02:27:27.125Z,-4.67
2019-01-11T02:29:58.899Z,-4.65
2019-01-11T02:32:30.897Z,-4.67
2019-01-11T02:35:03.319Z,-4.69
2019-01-11T02:37:35.074Z,-4.72
2019-01-11T02:40:07.676Z,-4.79
2019-01-11T02:42:39.597Z,-4.68
2019-01-11T02:45:13.303Z,-4.67
2019-01-11T02:47:45.337Z,-4.65
2019-01-11T02:50:17.455Z,-4.65
2019-01-11T02:52:49.536Z,-4.67
2019-01-11T02:55:21.719Z,-4.59
2019-01-11T02:57:53.650Z,-4.68
2019-01-11T03:00:25.492Z,-4.70
2019-01-11T03:02:57.374Z,-4.70
2019-01-11T03:05:29.402Z,-4.64
2019-01-11T03:08:01.299Z,-4.66
2019-01-11T03:10:33.569Z,-4.67
2019-01-11T03:13:05.391Z,-4.66
2019-01-11T03:15:37.232Z,-4.73
2019-01-11T03:18:09.710Z,-4.75
2019-01-11T03:20:41.552Z,-4.85
2019-01-11T03:23:13.655Z,-4.88
2019-01-11T03:25:45.521Z,-4.82
2019-01-11T03:28:17.403Z,-4.80
2019-01-11T03:30:49.246Z,-4.80
2019-01-11T03:33:21.135Z,-4.81
2019-01-11T03:35:53.035Z,-4.82
2019-01-11T03:38:24.771Z,-4.79
2019-01-11T03:40:56.676Z,-4.70
2019-01-11T03:43:28.967Z,-4.65
2019-01-11T03:46:00.821Z,-4.69
2019-01-11T03:48:32.641Z,-4.69
2019-01-11T03:51:04.618Z,-4.69
2019-01-11T03:53:36.755Z,-4.71
2019-01-11T03:56:10.070Z,-4.67
2019-01-11T03:58:42.158Z,-4.68
2019-01-11T04:01:14.266Z,-4.66
2019-01-11T04:03:46.434Z,-4.65
2019-01-11T04:06:18.440Z,-4.64
2019-01-11T04:08:50.349Z,-4.61
2019-01-11T04:11:22.267Z,-4.61
2019-01-11T04:13:54.180Z,-4.62
2019-01-11T04:16:26.104Z,-4.63
2019-01-11T04:19:10.818Z,-4.65
2019-01-11T04:21:59.437Z,-4.59
2019-01-11T04:24:33.658Z,-4.56
2019-01-11T04:27:05.649Z,-4.58
2019-01-11T04:29:37.821Z,-4.70
2019-01-11T04:32:09.706Z,-4.64
2019-01-11T04:34:41.481Z,-4.61
2019-01-11T04:37:13.660Z,-4.53
2019-01-11T04:39:45.498Z,-4.50
2019-01-11T04:42:17.340Z,-4.46
2019-01-11T04:44:49.331Z,-4.50
2019-01-11T04:47:21.249Z,-4.57
2019-01-11T04:49:53.121Z,-4.46
2019-01-11T04:52:25.038Z,-4.45
2019-01-11T04:54:56.967Z,-4.44
2019-01-11T04:57:28.995Z,-4.46
2019-01-11T05:00:00.924Z,-4.42
2019-01-11T05:02:33.107Z,-4.44
2019-01-11T05:05:05.726Z,-4.38
2019-01-11T05:07:37.565Z,-4.37
2019-01-11T05:10:11.776Z,-4.35
2019-01-11T05:12:43.687Z,-4.34
2019-01-11T05:15:15.798Z,-4.29
2019-01-11T05:17:47.783Z,-4.23
2019-01-11T05:20:19.719Z,-4.23
2019-01-11T05:22:51.617Z,-4.26
2019-01-11T05:25:23.395Z,-4.17
2019-01-11T05:27:55.410Z,-4.17
2019-01-11T05:30:27.359Z,-4.15
2019-01-11T05:32:59.217Z,-4.14
2019-01-11T05:35:31.180Z,-4.13
2019-01-11T05:38:03.275Z,-4.07
2019-01-11T05:40:35.133Z,-4.03
2019-01-11T05:43:07.033Z,-4.02
2019-01-11T05:45:38.872Z,-4.10
2019-01-11T05:48:10.789Z,-4.02
2019-01-11T05:50:42.708Z,-4.08
2019-01-11T05:53:14.545Z,-4.13
2019-01-11T05:55:50.753Z,-4.07
2019-01-11T05:58:39.883Z,-4.10
2019-01-11T06:01:13.041Z,-4.06
2019-01-11T06:03:44.875Z,-4.04
2019-01-11T06:06:16.805Z,-4.04
2019-01-11T06:08:49.196Z,-4.10
2019-01-11T06:11:21.159Z,-4.11
2019-01-11T06:13:52.923Z,-4.12
2019-01-11T06:16:24.844Z,-4.14
2019-01-11T06:18:57.108Z,-4.13
2019-01-11T06:21:29.478Z,-4.08
2019-01-11T06:24:01.253Z,-4.06
2019-01-11T06:26:33.124Z,-4.02
2019-01-11T06:29:05.047Z,-4.04
2019-01-11T06:31:36.820Z,-4.00
2019-01-11T06:34:10.011Z,-4.04
2019-01-11T06:36:41.853Z,-4.03
2019-01-11T06:39:13.881Z,-4.02
2019-01-11T06:41:51.586Z,-3.99
2019-01-11T06:44:23.429Z,-4.00
2019-01-11T06:46:55.279Z,-3.95
2019-01-11T06:49:27.226Z,-3.91
2019-01-11T06:51:59.154Z,-3.87
2019-01-11T06:54:31.087Z,-3.90
2019-01-11T06:57:03.027Z,-3.89
2019-01-11T06:59:34.936Z,-3.88
2019-01-11T07:02:07.051Z,-3.82
2019-01-11T07:04:38.996Z,-3.88
2019-01-11T07:07:10.923Z,-3.79
2019-01-11T07:09:42.839Z,-3.76
2019-01-11T07:12:14.795Z,-3.72
2019-01-11T07:14:46.938Z,-3.73
2019-01-11T07:17:18.864Z,-3.77
2019-01-11T07:19:50.699Z,-3.76
2019-01-11T07:22:22.567Z,-3.73
2019-01-11T07:24:54.412Z,-3.70
2019-01-11T07:27:27.038Z,-3.64
2019-01-11T07:29:59.214Z,-3.81
2019-01-11T07:32:31.096Z,-3.60
2019-01-11T07:35:03.369Z,-3.59
2019-01-11T07:37:35.316Z,-3.56
2019-01-11T07:40:08.579Z,-3.58
2019-01-11T07:42:40.590Z,-3.29
2019-01-11T07:45:12.795Z,-3.44
2019-01-11T07:47:44.736Z,-3.46
2019-01-11T07:50:16.663Z,-3.65
2019-01-11T07:52:48.617Z,-3.56
2019-01-11T07:55:20.468Z,-3.42
2019-01-11T07:57:52.561Z,-3.50
2019-01-11T08:00:24.500Z,-3.35
2019-01-11T08:02:56.355Z,-3.46
2019-01-11T08:05:28.274Z,-3.37
2019-01-11T08:08:00.288Z,-3.29
2019-01-11T08:10:32.221Z,-3.25
2019-01-11T08:13:04.413Z,-3.39
2019-01-11T08:15:36.341Z,-3.31
2019-01-11T08:18:08.336Z,-3.14
2019-01-11T08:20:40.331Z,-3.16
2019-01-11T08:23:12.577Z,-3.16
2019-01-11T08:25:44.503Z,-3.31
2019-01-11T08:28:16.531Z,-3.19
2019-01-11T08:30:48.628Z,-3.30
2019-01-11T08:33:20.591Z,-3.44
2019-01-11T08:35:52.723Z,-3.31
2019-01-11T08:38:24.670Z,-3.39
2019-01-11T08:40:56.670Z,-3.44
2019-01-11T08:43:28.574Z,-3.39
2019-01-11T08:46:01.115Z,-3.28
2019-01-11T08:48:34.291Z,-3.45
2019-01-11T08:51:06.541Z,-3.61
2019-01-11T08:53:38.488Z,-3.69
2019-01-11T08:56:10.563Z,-3.48
2019-01-11T08:58:43.111Z,-3.45
2019-01-11T09:01:15.042Z,-3.41
2019-01-11T09:03:47.032Z,-3.65
2019-01-11T09:06:18.961Z,-3.55
2019-01-11T09:08:51.175Z,-3.44
2019-01-11T09:11:23.109Z,-3.32
2019-01-11T09:13:55.053Z,-3.32
2019-01-11T09:16:26.923Z,-3.22
2019-01-11T09:19:01.193Z,-3.28
2019-01-11T09:21:41.596Z,-3.21
2019-01-11T09:24:10.070Z,-3.42
2019-01-11T09:26:42.024Z,-3.36
2019-01-11T09:29:14.144Z,-3.24
2019-01-11T09:31:46.147Z,-3.37
2019-01-11T09:34:18.086Z,-3.33
2019-01-11T09:36:49.936Z,-3.30
2019-01-11T09:39:21.807Z,-3.25
2019-01-11T09:41:53.722Z,-3.35
2019-01-11T09:44:25.611Z,-3.30
2019-01-11T09:46:57.539Z,-3.31
2019-01-11T09:49:29.505Z,-3.44
2019-01-11T09:52:01.526Z,-3.53
2019-01-11T09:54:33.554Z,-3.37
2019-01-11T09:57:05.552Z,-3.45
2019-01-11T09:59:37.516Z,-3.29
2019-01-11T10:02:27.385Z,-3.19
2019-01-11T10:04:59.233Z,-3.18
2019-01-11T10:07:31.248Z,-3.30
2019-01-11T10:10:03.120Z,-3.15
2019-01-11T10:12:35.619Z,-3.20
2019-01-11T10:15:09.086Z,-3.19
2019-01-11T10:17:41.334Z,-3.25
2019-01-11T10:20:13.859Z,-3.21
2019-01-11T10:22:45.859Z,-3.32
2019-01-11T10:25:17.820Z,-3.28
2019-01-11T10:27:50.886Z,-3.39
2019-01-11T10:30:23.641Z,-3.11
2019-01-11T10:32:56.538Z,-3.16
2019-01-11T10:35:29.643Z,-3.34
2019-01-11T10:38:01.664Z,-3.09
2019-01-11T10:40:33.597Z,-3.19
2019-01-11T10:43:07.131Z,-3.00
2019-01-11T10:45:39.394Z,-3.04
2019-01-11T10:48:11.320Z,-3.23
2019-01-11T10:50:43.233Z,-3.26
2019-01-11T10:53:15.173Z,-3.13
2019-01-11T10:55:47.154Z,-3.02
2019-01-11T10:58:19.159Z,-2.93
2019-01-11T11:00:51.399Z,-2.92
2019-01-11T11:03:23.336Z,-3.01
2019-01-11T11:05:55.273Z,-2.89
2019-01-11T11:08:27.135Z,-2.80
2019-01-11T11:10:59.010Z,-2.88
2019-01-11T11:13:30.987Z,-2.94
2019-01-11T11:16:02.930Z,-2.88
2019-01-11T11:18:34.859Z,-2.80
2019-01-11T11:21:06.860Z,-2.87
2019-01-11T11:23:43.093Z,-2.83
2019-01-11T11:26:15.118Z,-2.83
2019-01-11T11:28:47.053Z,-2.82
2019-01-11T11:31:19.070Z,-2.93
2019-01-11T11:33:51.006Z,-2.80
2019-01-11T11:36:23.025Z,-2.87
2019-01-11T11:38:54.945Z,-2.77
2019-01-11T11:41:26.890Z,-2.68
2019-01-11T11:43:58.669Z,-2.75
2019-01-11T11:46:30.788Z,-2.67
2019-01-11T11:49:02.969Z,-2.70
2019-01-11T11:51:41.069Z,-2.75
2019-01-11T11:54:09.786Z,-2.75
2019-01-11T11:56:42.001Z,-2.84
2019-01-11T11:59:13.834Z,-2.63
2019-01-11T12:01:46.686Z,-2.60
2019-01-11T12:04:18.825Z,-2.55
2019-01-11T12:06:50.877Z,-2.49
2019-01-11T12:09:22.665Z,-2.50
2019-01-11T12:11:54.864Z,-2.64
2019-01-11T12:14:26.815Z,-2.57
2019-01-11T12:16:58.774Z,-2.42
2019-01-11T12:19:31.083Z,-2.56
2019-01-11T12:22:03.029Z,-2.60
2019-01-11T12:24:34.954Z,-2.68
2019-01-11T12:27:06.808Z,-2.62
2019-01-11T12:29:38.666Z,-2.71
2019-01-11T12:32:10.577Z,-2.82
2019-01-11T12:34:42.461Z,-2.80
2019-01-11T12:37:14.452Z,-2.77
2019-01-11T12:39:46.314Z,-2.84
2019-01-11T12:42:18.172Z,-2.99
2019-01-11T12:44:50.113Z,-2.85
2019-01-11T12:47:22.053Z,-2.76
2019-01-11T12:49:54.244Z,-2.89
2019-01-11T12:52:26.271Z,-2.86
2019-01-11T12:54:58.211Z,-2.93
2019-01-11T12:57:30.162Z,-2.87
2019-01-11T13:00:02.497Z,-3.01
2019-01-11T13:02:34.414Z,-2.77
2019-01-11T13:05:08.803Z,-2.90
2019-01-11T13:07:40.745Z,-2.97
2019-01-11T13:10:15.648Z,-2.99
2019-01-11T13:12:47.758Z,-2.97
2019-01-11T13:15:24.525Z,-2.79
2019-01-11T13:17:57.426Z,-2.75
2019-01-11T13:20:32.474Z,-2.77
2019-01-11T13:23:04.472Z,-2.70
2019-01-11T13:25:36.657Z,-2.77
2019-01-11T13:28:09.459Z,-2.75
2019-01-11T13:30:41.414Z,-2.78
2019-01-11T13:33:13.499Z,-2.66
2019-01-11T13:35:45.475Z,-2.55
2019-01-11T13:38:17.268Z,-2.57
2019-01-11T13:40:49.142Z,-2.60
2019-01-11T13:43:21.335Z,-2.61
2019-01-11T13:45:53.355Z,-2.64
2019-01-11T13:48:25.292Z,-2.70
2019-01-11T13:50:57.473Z,-2.77
2019-01-11T13:53:29.529Z,-2.73
2019-01-11T13:56:01.483Z,-2.75
2019-01-11T13:58:33.434Z,-2.67
2019-01-11T14:01:05.642Z,-2.79
2019-01-11T14:03:37.618Z,-2.72
2019-01-11T14:06:10.523Z,-2.66
2019-01-11T14:08:42.537Z,-2.82
2019-01-11T14:11:14.547Z,-2.87
2019-01-11T14:13:47.752Z,-2.78
2019-01-11T14:16:19.946Z,-2.73
2019-01-11T14:18:51.891Z,-2.80
2019-01-11T14:21:23.754Z,-2.70
2019-01-11T14:23:55.606Z,-2.68
2019-01-11T14:26:27.697Z,-2.77
2019-01-11T14:28:59.594Z,-2.86
2019-01-11T14:31:31.565Z,-2.83
2019-01-11T14:34:03.483Z,-2.79
2019-01-11T14:36:35.665Z,-2.78
2019-01-11T14:39:09.827Z,-2.90
2019-01-11T14:41:42.131Z,-2.95
2019-01-11T14:44:13.998Z,-2.74
2019-01-11T14:46:46.024Z,-2.71
2019-01-11T14:49:17.851Z,-2.96
2019-01-11T14:51:49.795Z,-2.68
2019-01-11T14:54:21.724Z,-2.76
2019-01-11T14:56:53.654Z,-2.84
2019-01-11T14:59:25.596Z,-2.76
2019-01-11T15:01:57.714Z,-2.77
2019-01-11T15:04:29.907Z,-2.67
2019-01-11T15:07:01.704Z,-2.79
2019-01-11T15:09:34.699Z,-2.83
2019-01-11T15:12:06.836Z,-2.85
2019-01-11T15:14:39.005Z,-2.75
2019-01-11T15:17:11.011Z,-2.72
2019-01-11T15:19:42.924Z,-2.87
2019-01-11T15:22:14.780Z,-2.75
2019-01-11T15:24:46.688Z,-2.86
2019-01-11T15:27:18.620Z,-2.83
2019-01-11T15:29:50.493Z,-3.01
2019-01-11T15:32:22.696Z,-2.86
2019-01-11T15:34:54.628Z,-2.75
2019-01-11T15:37:26.578Z,-2.77
2019-01-11T15:39:58.430Z,-2.75
2019-01-11T15:42:30.373Z,-2.80
2019-01-11T15:45:02.234Z,-2.87
2019-01-11T15:47:35.054Z,-2.92
2019-01-11T15:50:10.186Z,-2.84
2019-01-11T15:52:42.175Z,-2.98
2019-01-11T15:55:14.145Z,-2.96
2019-01-11T15:57:46.088Z,-2.94
2019-01-11T16:00:21.710Z,-2.86
2019-01-11T16:02:53.707Z,-2.75
2019-01-11T16:05:25.748Z,-2.80
2019-01-11T16:07:57.704Z,-2.86
2019-01-11T16:10:29.604Z,-3.00
2019-01-11T16:13:48.565Z,-2.84
2019-01-11T16:16:53.481Z,-2.92
2019-01-11T16:19:25.444Z,-2.64
2019-01-11T16:21:57.398Z,-2.74
2019-01-11T16:24:29.437Z,-2.80
2019-01-11T16:27:01.453Z,-2.69
2019-01-11T16:29:33.402Z,-2.60
2019-01-11T16:32:05.461Z,-2.71
2019-01-11T16:34:37.628Z,-2.68
2019-01-11T16:37:09.912Z,-2.67
2019-01-11T16:39:41.976Z,-2.64
2019-01-11T16:42:13.955Z,-2.63
2019-01-11T16:44:46.003Z,-2.88
2019-01-11T16:47:17.974Z,-2.64
2019-01-11T16:49:49.926Z,-2.73
2019-01-11T16:52:21.889Z,-2.62
2019-01-11T16:54:53.772Z,-2.72
2019-01-11T16:57:26.091Z,-2.77
2019-01-11T16:59:58.139Z,-2.80
2019-01-11T17:02:36.484Z,-2.60
2019-01-11T17:05:03.963Z,-2.68
2019-01-11T17:07:36.077Z,-2.98
2019-01-11T17:10:10.128Z,-2.89
2019-01-11T17:12:42.186Z,-2.61
2019-01-11T17:15:16.899Z,-2.84
2019-01-11T17:17:48.798Z,-2.76
2019-01-11T17:20:20.760Z,-2.62
2019-01-11T17:22:53.347Z,-2.53
2019-01-11T17:25:25.380Z,-2.55
2019-01-11T17:27:57.446Z,-2.59
2019-01-11T17:30:29.503Z,-2.70
2019-01-11T17:33:01.587Z,-2.68
2019-01-11T17:35:33.609Z,-2.55
2019-01-11T17:38:05.694Z,-2.68
2019-01-11T17:40:37.839Z,-2.78
2019-01-11T17:43:09.827Z,-2.61
2019-01-11T17:45:41.782Z,-2.59
2019-01-11T17:48:13.862Z,-2.57
2019-01-11T17:50:45.865Z,-2.55
2019-01-11T17:53:17.882Z,-2.50
2019-01-11T17:55:50.353Z,-2.54
2019-01-11T17:58:22.318Z,-2.79
2019-01-11T18:00:54.189Z,-2.76
2019-01-11T18:03:26.386Z,-2.68
2019-01-11T18:05:58.391Z,-2.59
2019-01-11T18:08:30.432Z,-2.56
2019-01-11T18:11:02.429Z,-2.51
2019-01-11T18:13:34.534Z,-2.56
2019-01-11T18:16:07.260Z,-2.53
2019-01-11T18:18:39.228Z,-2.54
2019-01-11T18:21:11.590Z,-2.47
2019-01-11T18:23:43.518Z,-2.51
2019-01-11T18:26:15.509Z,-2.69
2019-01-11T18:28:47.655Z,-2.46
2019-01-11T18:31:20.837Z,-2.42
2019-01-11T18:33:53.218Z,-2.48
2019-01-11T18:36:25.474Z,-2.43
2019-01-11T18:38:57.781Z,-2.35
2019-01-11T18:41:30.078Z,-2.59
2019-01-11T18:44:02.545Z,-2.39
2019-01-11T18:46:34.677Z,-2.53
2019-01-11T18:49:07.088Z,-2.44
2019-01-11T18:51:39.296Z,-2.54
2019-01-11T18:54:12.184Z,-2.39
2019-01-11T18:56:44.485Z,-2.52
2019-01-11T18:59:16.789Z,-2.59
2019-01-11T19:01:49.053Z,-2.31
2019-01-11T19:04:21.203Z,-2.26
2019-01-11T19:06:53.889Z,-2.37
2019-01-11T19:09:26.190Z,-2.31
2019-01-11T19:11:58.671Z,-2.28
2019-01-11T19:14:31.069Z,-2.41
2019-01-11T19:17:03.534Z,-2.25
2019-01-11T19:19:35.817Z,-2.28
2019-01-11T19:22:07.997Z,-2.28
2019-01-11T19:24:40.188Z,-2.22
2019-01-11T19:27:12.598Z,-2.36
2019-01-11T19:29:44.826Z,-2.25
2019-01-11T19:32:17.122Z,-2.16
2019-01-11T19:34:49.519Z,-2.26
2019-01-11T19:37:22.406Z,-2.13
2019-01-11T19:39:54.788Z,-2.10
2019-01-11T19:42:27.440Z,-2.24
2019-01-11T19:45:00.975Z,-2.22
2019-01-11T19:47:33.342Z,-2.16
2019-01-11T19:50:08.492Z,-2.12
2019-01-11T19:52:40.846Z,-2.16
2019-01-11T19:55:13.430Z,-2.23
2019-01-11T19:57:46.843Z,-2.21
2019-01-11T20:00:25.350Z,-2.12
2019-01-11T20:02:57.838Z,-2.17
2019-01-11T20:05:31.416Z,-2.15
2019-01-11T20:08:03.946Z,-2.13
2019-01-11T20:10:36.949Z,-2.11
2019-01-11T20:13:10.447Z,-2.07
2019-01-11T20:15:43.030Z,-2.19
2019-01-11T20:18:15.217Z,-2.05
2019-01-11T20:20:47.693Z,-2.12
2019-01-11T20:23:19.916Z,-2.05
2019-01-11T20:25:52.169Z,-2.04
2019-01-11T20:28:24.692Z,-2.01
2019-01-11T20:30:56.822Z,-2.13
2019-01-11T20:33:29.161Z,-2.08
2019-01-11T20:36:02.265Z,-2.05
2019-01-11T20:38:34.877Z,-2.10
2019-01-11T20:41:07.051Z,-2.04
2019-01-11T20:43:39.257Z,-2.11
2019-01-11T20:46:11.845Z,-2.10
2019-01-11T20:48:44.060Z,-2.05
2019-01-11T20:51:16.451Z,-2.08
2019-01-11T20:53:48.682Z,-2.02
2019-01-11T20:56:21.163Z,-2.01
2019-01-11T20:58:53.596Z,-2.01
2019-01-11T21:01:26.081Z,-1.89
2019-01-11T21:03:58.419Z,-1.84
2019-01-11T21:06:30.935Z,-1.87
2019-01-11T21:09:04.081Z,-1.89
2019-01-11T21:11:37.348Z,-2.04
2019-01-11T21:14:10.380Z,-1.96
2019-01-11T21:16:42.750Z,-1.85
2019-01-11T21:19:15.156Z,-1.82
2019-01-11T21:21:48.166Z,-1.94
2019-01-11T21:24:20.513Z,-1.95
2019-01-11T21:26:52.772Z,-1.79
2019-01-11T21:29:25.246Z,-1.89
2019-01-11T21:31:57.443Z,-1.74
2019-01-11T21:34:30.099Z,-1.85
2019-01-11T21:37:03.163Z,-1.86
2019-01-11T21:39:35.610Z,-1.75
2019-01-11T21:42:08.075Z,-1.79
2019-01-11T21:44:40.699Z,-1.89
2019-01-11T21:47:12.927Z,-1.77
2019-01-11T21:49:45.093Z,-1.66
2019-01-11T21:52:17.331Z,-1.62
2019-01-11T21:54:49.679Z,-1.72
2019-01-11T21:57:21.932Z,-1.58
2019-01-11T21:59:53.900Z,-1.62
2019-01-11T22:02:26.066Z,-1.61
2019-01-11T22:04:58.134Z,-1.76
2019-01-11T22:07:30.356Z,-1.75
2019-01-11T22:10:05.889Z,-1.62
2019-01-11T22:12:38.095Z,-1.61
2019-01-11T22:15:14.013Z,-1.51
2019-01-11T22:17:46.229Z,-1.57
2019-01-11T22:20:18.397Z,-1.49
2019-01-11T22:22:50.539Z,-1.62
2019-01-11T22:25:22.509Z,-1.47
2019-01-11T22:27:54.501Z,-1.53
2019-01-11T22:30:30.553Z,-1.58
2019-01-11T22:33:00.927Z,-1.50
2019-01-11T22:35:32.893Z,-1.51
2019-01-11T22:38:04.964Z,-1.47
2019-01-11T22:40:37.159Z,-1.70
2019-01-11T22:43:10.203Z,-1.53
2019-01-11T22:45:42.354Z,-1.40
2019-01-11T22:48:14.298Z,-1.52
2019-01-11T22:50:46.254Z,-1.43
2019-01-11T22:53:18.245Z,-1.40
2019-01-11T22:55:50.326Z,-1.59
2019-01-11T22:58:22.255Z,-1.51
2019-01-11T23:01:56.896Z,-1.45
2019-01-11T23:04:28.952Z,-1.38
2019-01-11T23:07:29.194Z,-1.36
2019-01-11T23:10:31.128Z,-1.30
2019-01-11T23:13:16.078Z,-1.40
2019-01-11T23:15:56.961Z,-1.43
2019-01-11T23:18:31.259Z,-1.40
2019-01-11T23:21:07.025Z,-1.28
2019-01-11T23:23:39.046Z,-1.26
2019-01-11T23:26:10.920Z,-1.33
2019-01-11T23:28:43.480Z,-1.28
2019-01-11T23:31:15.639Z,-1.29
2019-01-11T23:33:47.576Z,-1.28
2019-01-11T23:36:19.498Z,-1.25
2019-01-11T23:38:51.490Z,-1.18
2019-01-11T23:41:23.458Z,-1.19
2019-01-11T23:43:55.579Z,-1.26
2019-01-11T23:46:27.753Z,-1.36
2019-01-11T23:48:59.896Z,-1.28
2019-01-11T23:51:32.271Z,-1.30
2019-01-11T23:54:04.457Z,-1.19
2019-01-11T23:56:36.633Z,-1.15
2019-01-11T23:59:09.481Z,-1.14
